Skye — WDG4178 — position and weather

sailwx.info

Track history (hours):
 
Tides and Currents Weather Stations Pressure Air Temp Water Temp Dewpoint Dewpoint Depression Visibility Wind Speed Wind Dir Waves Ship Positions

Skye

Owner: Worthington, Ralph, New York, NY. More information available from US FCC via Universal Licensing System and Coast Guard Vessel Documentation Center.

Last reported at 2015-Aug-18 09:28 UTC. Time now 2015-Aug-30 18:11 UTC.
Position N 37°57' E 023°40'.
Warning: this ship's position is 12 days out of date.

Length 13 m.

Type: Sailing vessel. MMSI: 367533820.

Date/timePositionNaut miles runAvg speedWind from/ knotsBaromVisibWave heightAir tempDewpointWater temp
2015-Aug-18 09:28N 37°57' E 023°40'0 0.4
2015-Aug-18 08:33N 37°56' E 023°40'1 0.0
2015-Aug-17 15:21N 37°56' E 023°39'3 4.0
2015-Aug-17 14:33N 37°54' E 023°36'6 6.5
2015-Aug-17 13:34N 37°49' E 023°31'6 6.0
2015-Aug-17 12:33N 37°45' E 023°25'2 2.3
2015-Aug-17 11:33N 37°43' E 023°23'0 0.0
2015-Aug-16 23:33N 37°43' E 023°23'2 1.8
2015-Aug-16 22:18N 37°44' E 023°26'0 0.0
2015-Aug-16 21:33N 37°44' E 023°26'0 0.0
2015-Aug-16 20:33N 37°45' E 023°26'0 0.0
2015-Aug-16 19:33N 37°45' E 023°26'0 0.0
2015-Aug-16 18:30N 37°45' E 023°26'0 0.0
2015-Aug-16 12:18N 37°45' E 023°26'2 2.2
2015-Aug-16 11:33N 37°46' E 023°25'7 7.1
2015-Aug-16 10:33N 37°50' E 023°33'7 7.1
2015-Aug-16 09:32N 37°55' E 023°39'1 1.3
2015-Aug-16 08:32N 37°56' E 023°40'0 0.0
2015-Aug-16 07:32N 37°56' E 023°40'0 0.0
2015-Aug-16 06:32N 37°56' E 023°40'0 0.0
2015-Aug-16 05:32N 37°56' E 023°40'0 0.0
2015-Aug-16 04:32N 37°56' E 023°40'0 0.0
2015-Aug-16 03:32N 37°56' E 023°40'0 0.0
2015-Aug-16 02:32N 37°56' E 023°40'0 0.0
2015-Aug-16 01:32N 37°56' E 023°40'0 0.0
2015-Aug-16 00:32N 37°56' E 023°40'0 0.0
2015-Aug-15 23:32N 37°56' E 023°40'0 0.0
2015-Aug-15 22:32N 37°56' E 023°40'0 0.0
2015-Aug-15 21:32N 37°56' E 023°40'0 0.0
2015-Aug-15 20:32N 37°56' E 023°40'0 0.0
2015-Aug-15 19:32N 37°56' E 023°40'0 0.0
2015-Aug-15 18:32N 37°56' E 023°40'0 0.0
2015-Aug-15 17:32N 37°56' E 023°40'0 0.0
2015-Aug-15 16:32N 37°56' E 023°40'0 0.0
2015-Aug-15 15:32N 37°56' E 023°40'0 0.0
2015-Aug-15 14:32N 37°56' E 023°40'0 0.0
2015-Aug-15 13:32N 37°56' E 023°40'0 0.0
2015-Aug-15 12:32N 37°56' E 023°40'0 0.0
2015-Aug-15 11:32N 37°56' E 023°40'0 0.0
2015-Aug-15 10:32N 37°56' E 023°40'0 0.0
2015-Aug-15 09:32N 37°56' E 023°40'0 0.0
2015-Aug-15 08:32N 37°56' E 023°40'1 1.0
2015-Aug-15 07:32N 37°56' E 023°39'0 0.0
2015-Aug-15 06:32N 37°56' E 023°39'0 0.0
2015-Aug-15 05:32N 37°56' E 023°39'0 0.0
2015-Aug-15 04:32N 37°56' E 023°39'0 0.0
2015-Aug-15 03:32N 37°56' E 023°39'0 0.0
2015-Aug-15 02:32N 37°56' E 023°39'0 0.0
2015-Aug-15 01:32N 37°56' E 023°39'0 0.0
2015-Aug-15 00:32N 37°56' E 023°39'0 0.0
2015-Aug-14 23:32N 37°56' E 023°39'0 0.0
2015-Aug-14 22:32N 37°56' E 023°39'0 0.0
2015-Aug-14 21:32N 37°56' E 023°39'0 0.0
2015-Aug-14 20:32N 37°56' E 023°39'0 0.0
2015-Aug-14 19:32N 37°56' E 023°39'0 0.0
2015-Aug-14 18:33N 37°56' E 023°39'0 0.0
2015-Aug-14 17:33N 37°56' E 023°39'0 0.0
2015-Aug-14 16:33N 37°56' E 023°39'0 0.0
2015-Aug-14 15:30N 37°56' E 023°39'0 0.4
2015-Aug-14 14:32N 37°56' E 023°39'5 5.6
2015-Aug-14 13:33N 37°50' E 023°39'5 5.3
2015-Aug-14 12:33N 37°52' E 023°33'6 6.3
2015-Aug-14 11:33N 37°48' E 023°27'3 3.2
2015-Aug-14 10:33N 37°45' E 023°25'11 0.5
2015-Aug-13 12:33N 37°34' E 023°26'6 0.3
2015-Aug-12 13:33N 37°29' E 023°30'  
2015-Aug-09 13:34N 37°31' E 023°31'6 2.9
2015-Aug-09 11:33N 37°36' E 023°27'3 2.8
2015-Aug-09 10:31N 37°38' E 023°26'5 2.8
2015-Aug-09 08:33N 37°43' E 023°23'0 0.0
2015-Aug-08 16:13N 37°43' E 023°23'1 2.1
2015-Aug-08 15:32N 37°45' E 023°24'6 6.0
2015-Aug-08 14:33N 37°49' E 023°29'8 7.9
2015-Aug-08 13:33N 37°54' E 023°37'3 2.9
2015-Aug-08 12:31N 37°56' E 023°39'0 0.0
2015-Aug-08 11:28N 37°56' E 023°39'0 0.0
2015-Aug-08 10:31N 37°56' E 023°39'0 0.0
2015-Aug-08 09:31N 37°56' E 023°39'  
Track history (hours):
 
Tides and Currents Weather Stations Pressure Air Temp Water Temp Dewpoint Dewpoint Depression Visibility Wind Speed Wind Dir Waves Ship Positions

Skye

Owner: Worthington, Ralph, New York, NY. More information available from US FCC via Universal Licensing System and Coast Guard Vessel Documentation Center.

Last reported at 2015-Aug-18 09:28 UTC. Time now 2015-Aug-30 18:11 UTC.
Position N 37°57' E 023°40'.
Warning: this ship's position is 12 days out of date.

Length 13 m.

Type: Sailing vessel. MMSI: 367533820.

Date/timePositionNaut miles runAvg speedWind from/ knotsBaromVisibWave heightAir tempDewpointWater temp
2015-Aug-18 09:28N 37°57' E 023°40'0 0.4
2015-Aug-18 08:33N 37°56' E 023°40'1 0.0
2015-Aug-17 15:21N 37°56' E 023°39'3 4.0
2015-Aug-17 14:33N 37°54' E 023°36'6 6.5
2015-Aug-17 13:34N 37°49' E 023°31'6 6.0
2015-Aug-17 12:33N 37°45' E 023°25'2 2.3
2015-Aug-17 11:33N 37°43' E 023°23'0 0.0
2015-Aug-16 23:33N 37°43' E 023°23'2 1.8
2015-Aug-16 22:18N 37°44' E 023°26'0 0.0
2015-Aug-16 21:33N 37°44' E 023°26'0 0.0
2015-Aug-16 20:33N 37°45' E 023°26'0 0.0
2015-Aug-16 19:33N 37°45' E 023°26'0 0.0
2015-Aug-16 18:30N 37°45' E 023°26'0 0.0
2015-Aug-16 12:18N 37°45' E 023°26'2 2.2
2015-Aug-16 11:33N 37°46' E 023°25'7 7.1
2015-Aug-16 10:33N 37°50' E 023°33'7 7.1
2015-Aug-16 09:32N 37°55' E 023°39'1 1.3
2015-Aug-16 08:32N 37°56' E 023°40'0 0.0
2015-Aug-16 07:32N 37°56' E 023°40'0 0.0
2015-Aug-16 06:32N 37°56' E 023°40'0 0.0
2015-Aug-16 05:32N 37°56' E 023°40'0 0.0
2015-Aug-16 04:32N 37°56' E 023°40'0 0.0
2015-Aug-16 03:32N 37°56' E 023°40'0 0.0
2015-Aug-16 02:32N 37°56' E 023°40'0 0.0
2015-Aug-16 01:32N 37°56' E 023°40'0 0.0
2015-Aug-16 00:32N 37°56' E 023°40'0 0.0
2015-Aug-15 23:32N 37°56' E 023°40'0 0.0
2015-Aug-15 22:32N 37°56' E 023°40'0 0.0
2015-Aug-15 21:32N 37°56' E 023°40'0 0.0
2015-Aug-15 20:32N 37°56' E 023°40'0 0.0
2015-Aug-15 19:32N 37°56' E 023°40'0 0.0
2015-Aug-15 18:32N 37°56' E 023°40'0 0.0
2015-Aug-15 17:32N 37°56' E 023°40'0 0.0
2015-Aug-15 16:32N 37°56' E 023°40'0 0.0
2015-Aug-15 15:32N 37°56' E 023°40'0 0.0
2015-Aug-15 14:32N 37°56' E 023°40'0 0.0
2015-Aug-15 13:32N 37°56' E 023°40'0 0.0
2015-Aug-15 12:32N 37°56' E 023°40'0 0.0
2015-Aug-15 11:32N 37°56' E 023°40'0 0.0
2015-Aug-15 10:32N 37°56' E 023°40'0 0.0
2015-Aug-15 09:32N 37°56' E 023°40'0 0.0
2015-Aug-15 08:32N 37°56' E 023°40'1 1.0
2015-Aug-15 07:32N 37°56' E 023°39'0 0.0
2015-Aug-15 06:32N 37°56' E 023°39'0 0.0
2015-Aug-15 05:32N 37°56' E 023°39'0 0.0
2015-Aug-15 04:32N 37°56' E 023°39'0 0.0
2015-Aug-15 03:32N 37°56' E 023°39'0 0.0
2015-Aug-15 02:32N 37°56' E 023°39'0 0.0
2015-Aug-15 01:32N 37°56' E 023°39'0 0.0
2015-Aug-15 00:32N 37°56' E 023°39'0 0.0
2015-Aug-14 23:32N 37°56' E 023°39'0 0.0
2015-Aug-14 22:32N 37°56' E 023°39'0 0.0
2015-Aug-14 21:32N 37°56' E 023°39'0 0.0
2015-Aug-14 20:32N 37°56' E 023°39'0 0.0
2015-Aug-14 19:32N 37°56' E 023°39'0 0.0
2015-Aug-14 18:33N 37°56' E 023°39'0 0.0
2015-Aug-14 17:33N 37°56' E 023°39'0 0.0
2015-Aug-14 16:33N 37°56' E 023°39'0 0.0
2015-Aug-14 15:30N 37°56' E 023°39'0 0.4
2015-Aug-14 14:32N 37°56' E 023°39'5 5.6
2015-Aug-14 13:33N 37°50' E 023°39'5 5.3
2015-Aug-14 12:33N 37°52' E 023°33'6 6.3
2015-Aug-14 11:33N 37°48' E 023°27'3 3.2
2015-Aug-14 10:33N 37°45' E 023°25'11 0.5
2015-Aug-13 12:33N 37°34' E 023°26'6 0.3
2015-Aug-12 13:33N 37°29' E 023°30'  
2015-Aug-09 13:34N 37°31' E 023°31'6 2.9
2015-Aug-09 11:33N 37°36' E 023°27'3 2.8
2015-Aug-09 10:31N 37°38' E 023°26'5 2.8
2015-Aug-09 08:33N 37°43' E 023°23'0 0.0
2015-Aug-08 16:13N 37°43' E 023°23'1 2.1
2015-Aug-08 15:32N 37°45' E 023°24'6 6.0
2015-Aug-08 14:33N 37°49' E 023°29'8 7.9
2015-Aug-08 13:33N 37°54' E 023°37'3 2.9
2015-Aug-08 12:31N 37°56' E 023°39'0 0.0
2015-Aug-08 11:28N 37°56' E 023°39'0 0.0
2015-Aug-08 10:31N 37°56' E 023°39'0 0.0
2015-Aug-08 09:31N 37°56' E 023°39'  

Dump ship's entire track history